sensor_id;sensor_type;location;lat;lon;timestamp;P1;durP1;ratioP1;P2;durP2;ratioP2
10005;SDS011;5042;42.626;23.382;2024-03-07T00:00:22;24.50;;;18.63;;
10005;SDS011;5042;42.626;23.382;2024-03-07T00:02:49;21.80;;;16.50;;
10005;SDS011;5042;42.626;23.382;2024-03-07T00:05:18;24.53;;;18.43;;
10005;SDS011;5042;42.626;23.382;2024-03-07T00:07:46;23.20;;;17.70;;
10005;SDS011;5042;42.626;23.382;2024-03-07T00:10:13;20.97;;;16.73;;
10005;SDS011;5042;42.626;23.382;2024-03-07T00:12:42;21.93;;;16.00;;
10005;SDS011;5042;42.626;23.382;2024-03-07T00:15:10;18.87;;;16.30;;
10005;SDS011;5042;42.626;23.382;2024-03-07T00:17:40;21.37;;;16.23;;
10005;SDS011;5042;42.626;23.382;2024-03-07T00:20:08;21.10;;;17.43;;
10005;SDS011;5042;42.626;23.382;2024-03-07T00:22:39;23.17;;;17.13;;
10005;SDS011;5042;42.626;23.382;2024-03-07T00:25:06;21.27;;;17.17;;
10005;SDS011;5042;42.626;23.382;2024-03-07T00:27:34;20.37;;;16.53;;
10005;SDS011;5042;42.626;23.382;2024-03-07T00:30:01;18.90;;;16.03;;
10005;SDS011;5042;42.626;23.382;2024-03-07T00:32:30;24.40;;;17.10;;
10005;SDS011;5042;42.626;23.382;2024-03-07T00:35:02;20.70;;;16.83;;
10005;SDS011;5042;42.626;23.382;2024-03-07T00:37:29;20.97;;;16.00;;
10005;SDS011;5042;42.626;23.382;2024-03-07T00:39:56;19.17;;;15.80;;
10005;SDS011;5042;42.626;23.382;2024-03-07T00:42:23;21.37;;;16.33;;
10005;SDS011;5042;42.626;23.382;2024-03-07T00:44:51;21.37;;;16.37;;
10005;SDS011;5042;42.626;23.382;2024-03-07T00:47:17;22.77;;;17.07;;
10005;SDS011;5042;42.626;23.382;2024-03-07T00:49:44;23.53;;;16.23;;
10005;SDS011;5042;42.626;23.382;2024-03-07T00:52:13;21.87;;;16.67;;
10005;SDS011;5042;42.626;23.382;2024-03-07T00:54:40;23.23;;;16.87;;
10005;SDS011;5042;42.626;23.382;2024-03-07T00:57:07;20.60;;;16.43;;
10005;SDS011;5042;42.626;23.382;2024-03-07T00:59:34;21.07;;;17.20;;
10005;SDS011;5042;42.626;23.382;2024-03-07T01:02:01;23.53;;;17.90;;
10005;SDS011;5042;42.626;23.382;2024-03-07T01:04:28;22.70;;;17.23;;
10005;SDS011;5042;42.626;23.382;2024-03-07T01:06:58;21.80;;;17.53;;
10005;SDS011;5042;42.626;23.382;2024-03-07T01:09:27;22.87;;;17.53;;
10005;SDS011;5042;42.626;23.382;2024-03-07T01:11:54;20.70;;;17.20;;
10005;SDS011;5042;42.626;23.382;2024-03-07T01:14:21;24.07;;;18.00;;
10005;SDS011;5042;42.626;23.382;2024-03-07T01:16:48;24.73;;;17.80;;
10005;SDS011;5042;42.626;23.382;2024-03-07T01:19:15;23.03;;;17.63;;
10005;SDS011;5042;42.626;23.382;2024-03-07T01:21:42;23.47;;;17.73;;
10005;SDS011;5042;42.626;23.382;2024-03-07T01:24:09;23.83;;;17.13;;
10005;SDS011;5042;42.626;23.382;2024-03-07T01:26:38;21.33;;;16.57;;
10005;SDS011;5042;42.626;23.382;2024-03-07T01:29:04;23.27;;;16.67;;
10005;SDS011;5042;42.626;23.382;2024-03-07T01:31:32;20.17;;;15.80;;
10005;SDS011;5042;42.626;23.382;2024-03-07T01:33:59;17.53;;;15.20;;
10005;SDS011;5042;42.626;23.382;2024-03-07T01:36:26;20.27;;;15.53;;
10005;SDS011;5042;42.626;23.382;2024-03-07T01:38:52;19.50;;;16.57;;
10005;SDS011;5042;42.626;23.382;2024-03-07T01:41:19;19.03;;;14.97;;
10005;SDS011;5042;42.626;23.382;2024-03-07T01:43:48;20.00;;;15.77;;
10005;SDS011;5042;42.626;23.382;2024-03-07T01:46:15;18.70;;;14.00;;
10005;SDS011;5042;42.626;23.382;2024-03-07T01:48:42;18.77;;;14.33;;
10005;SDS011;5042;42.626;23.382;2024-03-07T01:51:09;19.40;;;14.30;;
10005;SDS011;5042;42.626;23.382;2024-03-07T01:53:36;18.60;;;13.70;;
10005;SDS011;5042;42.626;23.382;2024-03-07T01:56:03;12.67;;;10.73;;
10005;SDS011;5042;42.626;23.382;2024-03-07T01:58:31;15.27;;;11.73;;
10005;SDS011;5042;42.626;23.382;2024-03-07T02:01:00;14.03;;;11.17;;
10005;SDS011;5042;42.626;23.382;2024-03-07T02:03:27;8.43;;;6.30;;
10005;SDS011;5042;42.626;23.382;2024-03-07T02:05:55;5.80;;;5.23;;
10005;SDS011;5042;42.626;23.382;2024-03-07T02:08:22;5.20;;;4.70;;
10005;SDS011;5042;42.626;23.382;2024-03-07T02:10:49;4.40;;;4.00;;
10005;SDS011;5042;42.626;23.382;2024-03-07T02:13:16;4.17;;;3.77;;
10005;SDS011;5042;42.626;23.382;2024-03-07T02:15:43;4.93;;;3.87;;
10005;SDS011;5042;42.626;23.382;2024-03-07T02:18:10;2.80;;;2.60;;
10005;SDS011;5042;42.626;23.382;2024-03-07T02:20:37;3.43;;;2.53;;
10005;SDS011;5042;42.626;23.382;2024-03-07T02:23:09;2.27;;;2.07;;
10005;SDS011;5042;42.626;23.382;2024-03-07T02:25:36;2.40;;;2.20;;
10005;SDS011;5042;42.626;23.382;2024-03-07T02:28:03;2.00;;;1.90;;
10005;SDS011;5042;42.626;23.382;2024-03-07T02:30:30;2.00;;;1.90;;
10005;SDS011;5042;42.626;23.382;2024-03-07T02:32:58;1.83;;;1.60;;
10005;SDS011;5042;42.626;23.382;2024-03-07T02:35:31;1.70;;;1.60;;
10005;SDS011;5042;42.626;23.382;2024-03-07T02:38:01;1.60;;;1.50;;
10005;SDS011;5042;42.626;23.382;2024-03-07T02:40:28;1.90;;;1.80;;
10005;SDS011;5042;42.626;23.382;2024-03-07T02:42:55;1.70;;;1.60;;
10005;SDS011;5042;42.626;23.382;2024-03-07T02:45:22;1.50;;;1.40;;
10005;SDS011;5042;42.626;23.382;2024-03-07T02:47:50;1.20;;;1.10;;
10005;SDS011;5042;42.626;23.382;2024-03-07T02:50:18;1.53;;;1.40;;
10005;SDS011;5042;42.626;23.382;2024-03-07T02:52:47;2.37;;;1.40;;
10005;SDS011;5042;42.626;23.382;2024-03-07T02:55:16;0.90;;;0.90;;
10005;SDS011;5042;42.626;23.382;2024-03-07T02:57:44;1.00;;;1.00;;
10005;SDS011;5042;42.626;23.382;2024-03-07T03:00:11;1.10;;;1.10;;
10005;SDS011;5042;42.626;23.382;2024-03-07T03:02:51;0.90;;;0.90;;
10005;SDS011;5042;42.626;23.382;2024-03-07T03:05:19;1.03;;;1.03;;
10005;SDS011;5042;42.626;23.382;2024-03-07T03:07:46;1.00;;;1.00;;
10005;SDS011;5042;42.626;23.382;2024-03-07T03:10:22;0.80;;;0.80;;
10005;SDS011;5042;42.626;23.382;2024-03-07T03:12:51;1.00;;;1.00;;
10005;SDS011;5042;42.626;23.382;2024-03-07T03:15:19;0.90;;;0.90;;
10005;SDS011;5042;42.626;23.382;2024-03-07T03:17:46;4.73;;;1.30;;
10005;SDS011;5042;42.626;23.382;2024-03-07T03:20:14;1.00;;;0.97;;
10005;SDS011;5042;42.626;23.382;2024-03-07T03:22:53;0.73;;;0.73;;
10005;SDS011;5042;42.626;23.382;2024-03-07T03:25:22;0.80;;;0.80;;
10005;SDS011;5042;42.626;23.382;2024-03-07T03:27:49;0.70;;;0.70;;
10005;SDS011;5042;42.626;23.382;2024-03-07T03:30:16;1.07;;;0.90;;
10005;SDS011;5042;42.626;23.382;2024-03-07T03:32:44;0.90;;;0.90;;
10005;SDS011;5042;42.626;23.382;2024-03-07T03:35:13;0.73;;;0.73;;
10005;SDS011;5042;42.626;23.382;2024-03-07T03:37:40;0.73;;;0.73;;
10005;SDS011;5042;42.626;23.382;2024-03-07T03:40:08;0.80;;;0.80;;
10005;SDS011;5042;42.626;23.382;2024-03-07T03:42:38;0.87;;;0.87;;
10005;SDS011;5042;42.626;23.382;2024-03-07T03:45:06;0.87;;;0.80;;
10005;SDS011;5042;42.626;23.382;2024-03-07T03:47:35;0.80;;;0.80;;
10005;SDS011;5042;42.626;23.382;2024-03-07T03:50:03;0.90;;;0.90;;
10005;SDS011;5042;42.626;23.382;2024-03-07T03:52:30;0.80;;;0.80;;
10005;SDS011;5042;42.626;23.382;2024-03-07T03:54:58;0.70;;;0.70;;
10005;SDS011;5042;42.626;23.382;2024-03-07T03:57:25;0.83;;;0.83;;
10005;SDS011;5042;42.626;23.382;2024-03-07T03:59:54;0.80;;;0.80;;
10005;SDS011;5042;42.626;23.382;2024-03-07T04:02:21;0.80;;;0.80;;
10005;SDS011;5042;42.626;23.382;2024-03-07T04:04:48;0.90;;;0.90;;
10005;SDS011;5042;42.626;23.382;2024-03-07T04:07:16;1.10;;;0.90;;
10005;SDS011;5042;42.626;23.382;2024-03-07T04:09:44;0.90;;;0.90;;
10005;SDS011;5042;42.626;23.382;2024-03-07T04:12:12;0.93;;;0.93;;
10005;SDS011;5042;42.626;23.382;2024-03-07T04:14:40;1.10;;;1.00;;
10005;SDS011;5042;42.626;23.382;2024-03-07T04:17:09;0.90;;;0.90;;
10005;SDS011;5042;42.626;23.382;2024-03-07T04:19:38;1.00;;;1.00;;
10005;SDS011;5042;42.626;23.382;2024-03-07T04:22:06;1.10;;;1.10;;
10005;SDS011;5042;42.626;23.382;2024-03-07T04:24:34;1.10;;;1.10;;
10005;SDS011;5042;42.626;23.382;2024-03-07T04:27:01;1.40;;;1.30;;
10005;SDS011;5042;42.626;23.382;2024-03-07T04:29:30;1.13;;;1.10;;
10005;SDS011;5042;42.626;23.382;2024-03-07T04:31:57;1.27;;;1.27;;
10005;SDS011;5042;42.626;23.382;2024-03-07T04:34:25;1.70;;;1.60;;
10005;SDS011;5042;42.626;23.382;2024-03-07T04:36:53;1.30;;;1.30;;
10005;SDS011;5042;42.626;23.382;2024-03-07T04:39:20;1.60;;;1.50;;
10005;SDS011;5042;42.626;23.382;2024-03-07T04:41:53;1.73;;;1.63;;
10005;SDS011;5042;42.626;23.382;2024-03-07T04:44:20;1.37;;;1.37;;
10005;SDS011;5042;42.626;23.382;2024-03-07T04:46:48;1.50;;;1.40;;
10005;SDS011;5042;42.626;23.382;2024-03-07T04:49:20;1.67;;;1.57;;
10005;SDS011;5042;42.626;23.382;2024-03-07T04:51:49;1.80;;;1.70;;
10005;SDS011;5042;42.626;23.382;2024-03-07T04:54:17;2.37;;;1.60;;
10005;SDS011;5042;42.626;23.382;2024-03-07T04:56:44;1.80;;;1.70;;
10005;SDS011;5042;42.626;23.382;2024-03-07T04:59:11;1.60;;;1.50;;
10005;SDS011;5042;42.626;23.382;2024-03-07T05:01:38;1.77;;;1.67;;
10005;SDS011;5042;42.626;23.382;2024-03-07T05:04:05;1.63;;;1.53;;
10005;SDS011;5042;42.626;23.382;2024-03-07T05:06:32;1.60;;;1.50;;
10005;SDS011;5042;42.626;23.382;2024-03-07T05:09:01;1.60;;;1.50;;
10005;SDS011;5042;42.626;23.382;2024-03-07T05:11:29;1.30;;;1.30;;
10005;SDS011;5042;42.626;23.382;2024-03-07T05:13:56;1.60;;;1.50;;
10005;SDS011;5042;42.626;23.382;2024-03-07T05:16:24;2.17;;;1.83;;
10005;SDS011;5042;42.626;23.382;2024-03-07T05:18:51;1.80;;;1.70;;
10005;SDS011;5042;42.626;23.382;2024-03-07T05:21:18;1.53;;;1.43;;
10005;SDS011;5042;42.626;23.382;2024-03-07T05:24:04;1.73;;;1.63;;
10005;SDS011;5042;42.626;23.382;2024-03-07T05:26:33;1.97;;;1.70;;
10005;SDS011;5042;42.626;23.382;2024-03-07T05:29:02;1.93;;;1.83;;
10005;SDS011;5042;42.626;23.382;2024-03-07T05:31:33;3.23;;;2.20;;
10005;SDS011;5042;42.626;23.382;2024-03-07T05:34:00;1.90;;;1.80;;
10005;SDS011;5042;42.626;23.382;2024-03-07T05:36:29;1.90;;;1.80;;
10005;SDS011;5042;42.626;23.382;2024-03-07T05:38:57;1.73;;;1.63;;
10005;SDS011;5042;42.626;23.382;2024-03-07T05:41:26;1.60;;;1.50;;
10005;SDS011;5042;42.626;23.382;2024-03-07T05:43:54;1.80;;;1.70;;
10005;SDS011;5042;42.626;23.382;2024-03-07T05:46:21;2.03;;;1.50;;
10005;SDS011;5042;42.626;23.382;2024-03-07T05:48:48;2.50;;;2.30;;
10005;SDS011;5042;42.626;23.382;2024-03-07T05:51:17;3.23;;;2.60;;
10005;SDS011;5042;42.626;23.382;2024-03-07T05:53:44;2.53;;;2.40;;
10005;SDS011;5042;42.626;23.382;2024-03-07T05:56:11;2.13;;;2.03;;
10005;SDS011;5042;42.626;23.382;2024-03-07T05:58:41;1.97;;;1.87;;
10005;SDS011;5042;42.626;23.382;2024-03-07T06:01:08;2.20;;;2.00;;
10005;SDS011;5042;42.626;23.382;2024-03-07T06:03:36;2.13;;;2.03;;
10005;SDS011;5042;42.626;23.382;2024-03-07T06:06:04;2.00;;;1.90;;
10005;SDS011;5042;42.626;23.382;2024-03-07T06:08:36;3.40;;;2.03;;
10005;SDS011;5042;42.626;23.382;2024-03-07T06:11:03;1.80;;;1.70;;
10005;SDS011;5042;42.626;23.382;2024-03-07T06:13:31;1.50;;;1.40;;
10005;SDS011;5042;42.626;23.382;2024-03-07T06:15:59;1.80;;;1.70;;
10005;SDS011;5042;42.626;23.382;2024-03-07T06:18:30;1.60;;;1.50;;
10005;SDS011;5042;42.626;23.382;2024-03-07T06:20:57;2.10;;;2.00;;
10005;SDS011;5042;42.626;23.382;2024-03-07T06:23:24;2.33;;;2.13;;
10005;SDS011;5042;42.626;23.382;2024-03-07T06:25:53;2.40;;;2.20;;
10005;SDS011;5042;42.626;23.382;2024-03-07T06:28:23;3.10;;;2.90;;
10005;SDS011;5042;42.626;23.382;2024-03-07T06:30:50;5.10;;;3.40;;
10005;SDS011;5042;42.626;23.382;2024-03-07T06:33:19;3.20;;;2.90;;
10005;SDS011;5042;42.626;23.382;2024-03-07T06:35:47;3.60;;;3.30;;
10005;SDS011;5042;42.626;23.382;2024-03-07T06:38:14;3.57;;;3.27;;
10005;SDS011;5042;42.626;23.382;2024-03-07T06:40:41;5.00;;;4.00;;
10005;SDS011;5042;42.626;23.382;2024-03-07T06:43:08;4.33;;;3.93;;
10005;SDS011;5042;42.626;23.382;2024-03-07T06:45:36;4.37;;;4.07;;
10005;SDS011;5042;42.626;23.382;2024-03-07T06:48:04;3.70;;;3.40;;
10005;SDS011;5042;42.626;23.382;2024-03-07T06:50:34;4.17;;;3.77;;
10005;SDS011;5042;42.626;23.382;2024-03-07T06:53:01;5.47;;;3.43;;
10005;SDS011;5042;42.626;23.382;2024-03-07T06:55:28;4.00;;;3.60;;
10005;SDS011;5042;42.626;23.382;2024-03-07T06:57:55;2.70;;;2.50;;
10005;SDS011;5042;42.626;23.382;2024-03-07T07:00:22;2.93;;;2.30;;
10005;SDS011;5042;42.626;23.382;2024-03-07T07:02:51;2.17;;;1.93;;
10005;SDS011;5042;42.626;23.382;2024-03-07T07:05:19;1.90;;;1.60;;
10005;SDS011;5042;42.626;23.382;2024-03-07T07:07:48;1.90;;;1.80;;
10005;SDS011;5042;42.626;23.382;2024-03-07T07:10:16;1.70;;;1.60;;
10005;SDS011;5042;42.626;23.382;2024-03-07T07:12:43;1.70;;;1.60;;
10005;SDS011;5042;42.626;23.382;2024-03-07T07:15:11;1.73;;;1.63;;
10005;SDS011;5042;42.626;23.382;2024-03-07T07:17:40;2.27;;;2.07;;
10005;SDS011;5042;42.626;23.382;2024-03-07T07:20:08;3.30;;;1.90;;
10005;SDS011;5042;42.626;23.382;2024-03-07T07:22:36;2.27;;;2.10;;
10005;SDS011;5042;42.626;23.382;2024-03-07T07:25:05;2.67;;;2.47;;
10005;SDS011;5042;42.626;23.382;2024-03-07T07:27:38;2.20;;;2.00;;
10005;SDS011;5042;42.626;23.382;2024-03-07T07:30:07;4.27;;;2.90;;
10005;SDS011;5042;42.626;23.382;2024-03-07T07:32:35;4.03;;;2.60;;
10005;SDS011;5042;42.626;23.382;2024-03-07T07:35:02;3.00;;;2.80;;
10005;SDS011;5042;42.626;23.382;2024-03-07T07:37:30;5.80;;;3.33;;
10005;SDS011;5042;42.626;23.382;2024-03-07T07:39:58;2.93;;;2.73;;
10005;SDS011;5042;42.626;23.382;2024-03-07T07:42:26;3.87;;;2.80;;
10005;SDS011;5042;42.626;23.382;2024-03-07T07:44:53;2.87;;;2.67;;
10005;SDS011;5042;42.626;23.382;2024-03-07T07:47:20;4.27;;;2.93;;
10005;SDS011;5042;42.626;23.382;2024-03-07T07:49:47;2.33;;;2.17;;
10005;SDS011;5042;42.626;23.382;2024-03-07T07:52:14;2.60;;;2.40;;
10005;SDS011;5042;42.626;23.382;2024-03-07T07:54:42;2.10;;;1.90;;
10005;SDS011;5042;42.626;23.382;2024-03-07T07:57:09;2.37;;;2.17;;
10005;SDS011;5042;42.626;23.382;2024-03-07T07:59:37;2.77;;;2.57;;
10005;SDS011;5042;42.626;23.382;2024-03-07T08:02:05;3.10;;;2.90;;
10005;SDS011;5042;42.626;23.382;2024-03-07T08:04:32;3.47;;;3.17;;
10005;SDS011;5042;42.626;23.382;2024-03-07T08:06:59;5.20;;;4.70;;
10005;SDS011;5042;42.626;23.382;2024-03-07T08:09:26;5.70;;;4.73;;
10005;SDS011;5042;42.626;23.382;2024-03-07T08:11:53;4.57;;;4.17;;
10005;SDS011;5042;42.626;23.382;2024-03-07T08:14:19;4.13;;;3.73;;
10005;SDS011;5042;42.626;23.382;2024-03-07T08:16:49;5.67;;;4.00;;
10005;SDS011;5042;42.626;23.382;2024-03-07T08:19:16;3.93;;;3.63;;
10005;SDS011;5042;42.626;23.382;2024-03-07T08:21:43;4.67;;;3.83;;
10005;SDS011;5042;42.626;23.382;2024-03-07T08:24:10;4.40;;;4.00;;
10005;SDS011;5042;42.626;23.382;2024-03-07T08:26:37;4.30;;;3.90;;
10005;SDS011;5042;42.626;23.382;2024-03-07T08:29:09;3.73;;;3.40;;
10005;SDS011;5042;42.626;23.382;2024-03-07T08:31:37;4.50;;;4.10;;
10005;SDS011;5042;42.626;23.382;2024-03-07T08:34:05;4.00;;;3.60;;
10005;SDS011;5042;42.626;23.382;2024-03-07T08:36:32;3.77;;;3.40;;
10005;SDS011;5042;42.626;23.382;2024-03-07T08:39:00;3.57;;;3.27;;
10005;SDS011;5042;42.626;23.382;2024-03-07T08:41:28;2.77;;;2.57;;
10005;SDS011;5042;42.626;23.382;2024-03-07T08:43:56;2.83;;;2.20;;
10005;SDS011;5042;42.626;23.382;2024-03-07T08:46:23;2.63;;;2.43;;
10005;SDS011;5042;42.626;23.382;2024-03-07T08:48:51;3.23;;;2.57;;
10005;SDS011;5042;42.626;23.382;2024-03-07T08:51:20;3.07;;;2.83;;
10005;SDS011;5042;42.626;23.382;2024-03-07T08:53:48;3.10;;;2.90;;
10005;SDS011;5042;42.626;23.382;2024-03-07T08:56:15;3.67;;;3.17;;
10005;SDS011;5042;42.626;23.382;2024-03-07T08:58:42;3.30;;;3.00;;
10005;SDS011;5042;42.626;23.382;2024-03-07T09:01:09;4.13;;;3.10;;
10005;SDS011;5042;42.626;23.382;2024-03-07T09:03:37;3.27;;;2.97;;
10005;SDS011;5042;42.626;23.382;2024-03-07T09:06:04;3.17;;;2.93;;
10005;SDS011;5042;42.626;23.382;2024-03-07T09:08:33;3.03;;;2.67;;
10005;SDS011;5042;42.626;23.382;2024-03-07T09:11:00;3.73;;;2.90;;
10005;SDS011;5042;42.626;23.382;2024-03-07T09:13:27;4.47;;;3.13;;
10005;SDS011;5042;42.626;23.382;2024-03-07T09:15:54;4.97;;;3.63;;
10005;SDS011;5042;42.626;23.382;2024-03-07T09:18:20;4.80;;;3.47;;
10005;SDS011;5042;42.626;23.382;2024-03-07T09:20:49;3.57;;;3.27;;
10005;SDS011;5042;42.626;23.382;2024-03-07T09:23:16;3.90;;;3.23;;
10005;SDS011;5042;42.626;23.382;2024-03-07T09:25:44;4.47;;;2.83;;
10005;SDS011;5042;42.626;23.382;2024-03-07T09:28:11;3.10;;;2.77;;
10005;SDS011;5042;42.626;23.382;2024-03-07T09:30:38;3.20;;;2.90;;
10005;SDS011;5042;42.626;23.382;2024-03-07T09:33:05;2.90;;;2.70;;
10005;SDS011;5042;42.626;23.382;2024-03-07T09:35:35;3.20;;;3.00;;
10005;SDS011;5042;42.626;23.382;2024-03-07T09:38:02;2.80;;;2.60;;
10005;SDS011;5042;42.626;23.382;2024-03-07T09:40:31;3.33;;;3.03;;
10005;SDS011;5042;42.626;23.382;2024-03-07T09:43:00;4.37;;;3.40;;
10005;SDS011;5042;42.626;23.382;2024-03-07T09:45:28;3.33;;;3.13;;
10005;SDS011;5042;42.626;23.382;2024-03-07T09:47:56;4.30;;;3.80;;
10005;SDS011;5042;42.626;23.382;2024-03-07T09:50:23;4.20;;;3.80;;
10005;SDS011;5042;42.626;23.382;2024-03-07T09:52:55;5.20;;;3.97;;
10005;SDS011;5042;42.626;23.382;2024-03-07T09:55:25;6.13;;;4.23;;
10005;SDS011;5042;42.626;23.382;2024-03-07T09:57:52;4.30;;;3.90;;
10005;SDS011;5042;42.626;23.382;2024-03-07T10:00:21;5.23;;;4.47;;
10005;SDS011;5042;42.626;23.382;2024-03-07T10:02:53;13.13;;;5.60;;
10005;SDS011;5042;42.626;23.382;2024-03-07T10:05:23;3.93;;;3.53;;
10005;SDS011;5042;42.626;23.382;2024-03-07T10:07:53;4.07;;;3.70;;
10005;SDS011;5042;42.626;23.382;2024-03-07T10:10:20;4.87;;;3.83;;
10005;SDS011;5042;42.626;23.382;2024-03-07T10:12:48;4.67;;;4.20;;
10005;SDS011;5042;42.626;23.382;2024-03-07T10:15:15;4.50;;;4.10;;
10005;SDS011;5042;42.626;23.382;2024-03-07T10:17:44;4.60;;;4.20;;
10005;SDS011;5042;42.626;23.382;2024-03-07T10:20:12;5.70;;;3.90;;
10005;SDS011;5042;42.626;23.382;2024-03-07T10:22:40;4.50;;;4.10;;
10005;SDS011;5042;42.626;23.382;2024-03-07T10:25:07;4.90;;;4.40;;
10005;SDS011;5042;42.626;23.382;2024-03-07T10:27:36;4.33;;;3.93;;
10005;SDS011;5042;42.626;23.382;2024-03-07T10:30:04;6.00;;;5.03;;
10005;SDS011;5042;42.626;23.382;2024-03-07T10:32:33;6.13;;;5.33;;
10005;SDS011;5042;42.626;23.382;2024-03-07T10:35:02;4.90;;;4.50;;
10005;SDS011;5042;42.626;23.382;2024-03-07T10:37:34;3.93;;;3.63;;
10005;SDS011;5042;42.626;23.382;2024-03-07T10:40:01;4.50;;;4.10;;
10005;SDS011;5042;42.626;23.382;2024-03-07T10:42:40;4.00;;;3.70;;
10005;SDS011;5042;42.626;23.382;2024-03-07T10:45:14;5.53;;;4.30;;
10005;SDS011;5042;42.626;23.382;2024-03-07T10:47:47;4.90;;;4.40;;
10005;SDS011;5042;42.626;23.382;2024-03-07T10:50:23;4.07;;;3.67;;
10005;SDS011;5042;42.626;23.382;2024-03-07T10:53:02;3.63;;;3.23;;
10005;SDS011;5042;42.626;23.382;2024-03-07T10:55:34;2.80;;;2.60;;
10005;SDS011;5042;42.626;23.382;2024-03-07T10:58:09;3.43;;;3.13;;
10005;SDS011;5042;42.626;23.382;2024-03-07T11:00:41;3.40;;;3.10;;
10005;SDS011;5042;42.626;23.382;2024-03-07T11:03:11;3.27;;;3.00;;
10005;SDS011;5042;42.626;23.382;2024-03-07T11:05:40;3.77;;;3.13;;
10005;SDS011;5042;42.626;23.382;2024-03-07T11:08:08;4.03;;;3.47;;
10005;SDS011;5042;42.626;23.382;2024-03-07T11:10:37;3.73;;;3.43;;
10005;SDS011;5042;42.626;23.382;2024-03-07T11:13:05;5.20;;;3.20;;
10005;SDS011;5042;42.626;23.382;2024-03-07T11:15:35;3.17;;;2.83;;
10005;SDS011;5042;42.626;23.382;2024-03-07T11:18:04;3.53;;;3.03;;
10005;SDS011;5042;42.626;23.382;2024-03-07T11:20:36;2.87;;;2.60;;
10005;SDS011;5042;42.626;23.382;2024-03-07T11:25:55;4.90;;;3.70;;
10005;SDS011;5042;42.626;23.382;2024-03-07T11:28:47;5.33;;;4.50;;
10005;SDS011;5042;42.626;23.382;2024-03-07T11:31:16;5.07;;;4.07;;
10005;SDS011;5042;42.626;23.382;2024-03-07T11:34:11;4.70;;;4.30;;
10005;SDS011;5042;42.626;23.382;2024-03-07T11:36:43;5.87;;;4.30;;
10005;SDS011;5042;42.626;23.382;2024-03-07T11:42:18;5.07;;;4.57;;
10005;SDS011;5042;42.626;23.382;2024-03-07T11:44:46;5.73;;;5.17;;
10005;SDS011;5042;42.626;23.382;2024-03-07T11:47:14;5.57;;;5.03;;
10005;SDS011;5042;42.626;23.382;2024-03-07T11:49:43;3.50;;;3.17;;
10005;SDS011;5042;42.626;23.382;2024-03-07T11:52:13;6.70;;;4.60;;
10005;SDS011;5042;42.626;23.382;2024-03-07T11:54:43;5.20;;;4.40;;
10005;SDS011;5042;42.626;23.382;2024-03-07T11:57:12;4.33;;;3.93;;
10005;SDS011;5042;42.626;23.382;2024-03-07T11:59:41;4.13;;;3.80;;
10005;SDS011;5042;42.626;23.382;2024-03-07T12:02:11;4.43;;;4.03;;
10005;SDS011;5042;42.626;23.382;2024-03-07T12:04:40;3.87;;;3.37;;
10005;SDS011;5042;42.626;23.382;2024-03-07T12:07:07;3.17;;;2.90;;
10005;SDS011;5042;42.626;23.382;2024-03-07T12:09:36;2.63;;;2.43;;
10005;SDS011;5042;42.626;23.382;2024-03-07T12:12:06;4.73;;;4.33;;
10005;SDS011;5042;42.626;23.382;2024-03-07T12:14:34;2.63;;;2.43;;
10005;SDS011;5042;42.626;23.382;2024-03-07T12:17:02;3.00;;;2.70;;
10005;SDS011;5042;42.626;23.382;2024-03-07T12:19:29;3.03;;;2.73;;
10005;SDS011;5042;42.626;23.382;2024-03-07T12:21:59;3.50;;;2.90;;
10005;SDS011;5042;42.626;23.382;2024-03-07T12:24:27;4.17;;;3.03;;
10005;SDS011;5042;42.626;23.382;2024-03-07T12:27:05;4.10;;;2.93;;
10005;SDS011;5042;42.626;23.382;2024-03-07T12:29:34;3.07;;;2.70;;
10005;SDS011;5042;42.626;23.382;2024-03-07T12:32:03;3.63;;;3.10;;
10005;SDS011;5042;42.626;23.382;2024-03-07T12:34:33;3.77;;;3.23;;
10005;SDS011;5042;42.626;23.382;2024-03-07T12:37:02;3.20;;;2.63;;
10005;SDS011;5042;42.626;23.382;2024-03-07T12:39:31;2.77;;;2.57;;
10005;SDS011;5042;42.626;23.382;2024-03-07T12:42:01;3.10;;;2.83;;
10005;SDS011;5042;42.626;23.382;2024-03-07T12:44:40;3.10;;;2.90;;
10005;SDS011;5042;42.626;23.382;2024-03-07T12:47:09;3.13;;;2.87;;
10005;SDS011;5042;42.626;23.382;2024-03-07T12:49:36;4.00;;;3.60;;
10005;SDS011;5042;42.626;23.382;2024-03-07T12:52:04;3.40;;;3.20;;
10005;SDS011;5042;42.626;23.382;2024-03-07T12:54:33;3.20;;;2.90;;
10005;SDS011;5042;42.626;23.382;2024-03-07T12:57:00;3.07;;;2.80;;
10005;SDS011;5042;42.626;23.382;2024-03-07T12:59:30;3.40;;;3.10;;
10005;SDS011;5042;42.626;23.382;2024-03-07T13:01:58;5.03;;;3.53;;
10005;SDS011;5042;42.626;23.382;2024-03-07T13:04:25;3.40;;;3.20;;
10005;SDS011;5042;42.626;23.382;2024-03-07T13:06:53;3.23;;;2.93;;
10005;SDS011;5042;42.626;23.382;2024-03-07T13:09:24;4.23;;;3.17;;
10005;SDS011;5042;42.626;23.382;2024-03-07T13:11:53;3.30;;;3.10;;
10005;SDS011;5042;42.626;23.382;2024-03-07T13:14:20;3.50;;;3.20;;
10005;SDS011;5042;42.626;23.382;2024-03-07T13:16:47;3.40;;;3.10;;
10005;SDS011;5042;42.626;23.382;2024-03-07T13:19:16;3.33;;;3.03;;
10005;SDS011;5042;42.626;23.382;2024-03-07T13:21:46;4.13;;;3.43;;
10005;SDS011;5042;42.626;23.382;2024-03-07T13:24:14;3.20;;;3.00;;
10005;SDS011;5042;42.626;23.382;2024-03-07T13:26:42;3.30;;;3.00;;
10005;SDS011;5042;42.626;23.382;2024-03-07T13:29:09;3.43;;;3.13;;
10005;SDS011;5042;42.626;23.382;2024-03-07T13:31:37;4.20;;;3.07;;
10005;SDS011;5042;42.626;23.382;2024-03-07T13:34:05;2.90;;;2.70;;
10005;SDS011;5042;42.626;23.382;2024-03-07T13:36:39;2.90;;;2.70;;
10005;SDS011;5042;42.626;23.382;2024-03-07T13:39:07;3.90;;;2.90;;
10005;SDS011;5042;42.626;23.382;2024-03-07T13:41:36;4.90;;;2.60;;
10005;SDS011;5042;42.626;23.382;2024-03-07T13:44:03;3.60;;;3.30;;
10005;SDS011;5042;42.626;23.382;2024-03-07T13:46:30;3.70;;;2.90;;
10005;SDS011;5042;42.626;23.382;2024-03-07T13:48:58;4.03;;;2.80;;
10005;SDS011;5042;42.626;23.382;2024-03-07T13:51:32;3.30;;;3.10;;
10005;SDS011;5042;42.626;23.382;2024-03-07T13:54:02;3.13;;;2.70;;
10005;SDS011;5042;42.626;23.382;2024-03-07T13:56:52;3.00;;;2.73;;
10005;SDS011;5042;42.626;23.382;2024-03-07T13:59:39;2.97;;;2.77;;
10005;SDS011;5042;42.626;23.382;2024-03-07T14:02:40;3.63;;;3.33;;
10005;SDS011;5042;42.626;23.382;2024-03-07T14:05:33;6.67;;;3.90;;
10005;SDS011;5042;42.626;23.382;2024-03-07T14:08:39;6.23;;;5.07;;
10005;SDS011;5042;42.626;23.382;2024-03-07T14:11:53;4.60;;;4.07;;
10005;SDS011;5042;42.626;23.382;2024-03-07T14:14:42;6.00;;;4.63;;
10005;SDS011;5042;42.626;23.382;2024-03-07T14:17:42;4.77;;;3.90;;
10005;SDS011;5042;42.626;23.382;2024-03-07T14:20:45;5.17;;;4.67;;
10005;SDS011;5042;42.626;23.382;2024-03-07T14:23:30;5.43;;;4.87;;
10005;SDS011;5042;42.626;23.382;2024-03-07T14:29:28;6.90;;;5.90;;
10005;SDS011;5042;42.626;23.382;2024-03-07T14:32:05;5.57;;;4.97;;
10005;SDS011;5042;42.626;23.382;2024-03-07T14:34:36;7.03;;;5.40;;
10005;SDS011;5042;42.626;23.382;2024-03-07T14:37:17;7.10;;;4.90;;
10005;SDS011;5042;42.626;23.382;2024-03-07T14:39:50;8.43;;;5.80;;
10005;SDS011;5042;42.626;23.382;2024-03-07T14:42:21;7.30;;;5.60;;
10005;SDS011;5042;42.626;23.382;2024-03-07T14:44:49;6.40;;;5.43;;
10005;SDS011;5042;42.626;23.382;2024-03-07T14:47:18;6.57;;;5.70;;
10005;SDS011;5042;42.626;23.382;2024-03-07T14:49:46;8.03;;;5.90;;
10005;SDS011;5042;42.626;23.382;2024-03-07T14:52:13;6.77;;;6.10;;
10005;SDS011;5042;42.626;23.382;2024-03-07T14:54:40;7.03;;;6.07;;
10005;SDS011;5042;42.626;23.382;2024-03-07T14:57:09;8.00;;;6.50;;
10005;SDS011;5042;42.626;23.382;2024-03-07T14:59:38;8.93;;;7.10;;
10005;SDS011;5042;42.626;23.382;2024-03-07T15:02:06;7.77;;;6.97;;
10005;SDS011;5042;42.626;23.382;2024-03-07T15:04:36;8.90;;;7.30;;